Terminal Aerodrome Forecast
Issued by NWS

Current Version | Previous Version | Text Only | Print | Product List | Glossary Off
Versions: 1 2 3 4 5 6 7 8 9 10 11 12 13 14 15 16 17 18 19 20

000
FTUS41 KPBZ 201549 AAB
TAFMGW
TAF AMD
KMGW 201549Z 2016/2112 33006KT P6SM SCT025 BKN035
     FM202100 31004KT P6SM BKN150
     FM211000 01002KT P6SM VCSH OVC035=

USA.gov is the U.S. government's official web portal to all federal, state and local government web resources and services.